Chalk, Texas
Current Conditions -  °F | °C
As of 9:53 PM on Wednesday 22 Oct 2014 (Local Time) from KCDS Reporting Station
Haze Haze  
Wind Chill: 62°   Ceiling: 5000
Heat Index: 62°   Visibility: 5mi
Dew Point: 61°   Wind: 8mph
Humidity: 96%   Direction: 150°SSE
Pressure: 30.13"   Gusts: NA
Location:  33.87°N, 100.22°W
Report Text: KCDS 230253Z AUTO 15007KT 5SM BR SCT004 OVC050 17/16 A3013 RMK AO2 SLP186 T01670161 51009
Loading
Personal Weather Stations






























Interactive Weather Map
Tropical Storm Tracking
New forecast layout! Learn more

10-Day Weather Forecast

Advertisements
Track Severe Weather on mobile